Saturday, August 18, 2018, 1:58 PM GMT
Back to Local

CYTZ, Toronto Island Airport Automated Reporting Station

Location: , , Canada Lat: 43.633
Local Time: 1:58 PM GMT (13:58 GMT) Lon: -79.4
Time Zone: GMT Elev: 252 ft

Show me the last for .
Show Decoded

2018-08-18 13:00 METAR CYTZ 181300Z AUTO 06011G16KT 010V070 9SM CLR 22/16 A2995 RMK SLP141
                 DENSITY ALT 1000FT =
2018-08-18 12:00 METAR CYTZ 181200Z AUTO 06008KT 010V070 9SM CLR 21/17 A2994 RMK SLP140 DENSITY
                 ALT 900FT =
2018-08-18 11:00 METAR CYTZ 181100Z AUTO 06010KT 9SM BKN170 BKN250 21/17 A2993 RMK SLP136 DENSITY
                 ALT 900FT =
2018-08-18 10:00 METAR CYTZ 181000Z AUTO 02008KT 9SM FEW095 SCT170 SCT250 21/18 A2992 RMK SLP133
                 DENSITY ALT 1000FT =
2018-08-18 09:08 METAR CYTZ 180908Z AUTO 04008KT 9SM SCT110 BKN170 22/19 A2991 RMK SLP128 DENSITY
                 ALT 1100FT =
2018-08-18 09:00 METAR CYTZ 180900Z AUTO 04008KT 9SM -RA BKN110 BKN170 22/19 A2991 RMK SLP129
                 DENSITY ALT 1000FT =
2018-08-18 08:00 METAR CYTZ 180800Z AUTO 03009KT 9SM -RA FEW100 OVC130 22/19 A2990 RMK SLP126
                 DENSITY ALT 1100FT =
2018-08-18 07:51 METAR CYTZ 180751Z AUTO 04010KT 9SM -RA SCT100 OVC120 22/19 A2990 RMK SLP126
                 DENSITY ALT 1100FT =
2018-08-18 07:45 METAR CYTZ 180745Z AUTO 04011KT 9SM FEW100 BKN120 OVC140 22/19 A2990 RMK SLP125
                 DENSITY ALT 1100FT =
2018-08-18 07:35 METAR CYTZ 180735Z AUTO 05011G17KT 9SM -RA BKN120 OVC140 22/19 A2990 RMK SLP124
                 DENSITY ALT 1100FT =
2018-08-18 07:26 METAR CYTZ 180726Z AUTO 05013KT 9SM BKN120 OVC140 22/19 A2989 RMK SLP123 DENSITY
                 ALT 1100FT
2018-08-18 07:15 METAR CYTZ 180715Z AUTO 05013KT 7SM -RA FEW100 BKN120 OVC140 22/19 A2989 RMK
                 SLP123 DENSITY ALT 1100FT =
2018-08-18 07:00 METAR CYTZ 180700Z AUTO 05011G16KT 9SM FEW060 SCT100 OVC140 22/19 A2990 RMK
                 SLP125 DENSITY ALT 1100FT =
2018-08-18 06:45 METAR CYTZ 180645Z AUTO 05012G18KT 9SM FEW060 SCT099 OVC140 22/19 A2990 RMK
                 SLP124 DENSITY ALT 1100FT =
2018-08-18 06:35 METAR CYTZ 180635Z AUTO 04011G17KT 9SM -RA FEW060 SCT097 OVC140 23/19 A2990 RMK
                 SLP125 DENSITY ALT 1200FT =
2018-08-18 06:00 METAR CYTZ 180600Z AUTO 05010KT 9SM BKN090 OVC150 23/19 A2989 RMK SLP123 DENSITY
                 ALT 1200FT =
2018-08-18 05:00 METAR CYTZ 180500Z AUTO 04008KT 9SM SCT070 SCT084 OVC150 23/19 A2989 RMK SLP122
                 DENSITY ALT 1200FT =
2018-08-18 04:55 METAR CYTZ 180455Z AUTO 04009KT 9SM FEW030 BKN070 BKN130 OVC150 23/19 A2989 RMK
                 SLP122 DENSITY ALT 1200FT =
2018-08-18 04:00 METAR CYTZ 180400Z AUTO 04007KT 9SM -RA FEW075 SCT100 BKN130 23/20 A2989 RMK
                 SLP122 DENSITY ALT 1200FT =
2018-08-18 03:49 METAR CYTZ 180349Z AUTO 05010G15KT 9SM -RA SCT080 BKN130 BKN150 23/20 A2989 RMK
                 SLP121 DENSITY ALT 1200FT =
2018-08-18 03:00 METAR CYTZ 180300Z AUTO 34006KT 9SM BKN025 OVC035 23/21 A2990 RMK SLP124 DENSITY
                 ALT 1300FT =
2018-08-18 02:00 METAR CYTZ 180200Z AUTO 33006KT 9SM BKN050 BKN065 OVC140 23/21 A2990 RMK SLP125
                 DENSITY ALT 1200FT =
2018-08-18 01:00 METAR CYTZ 180100Z AUTO 32006KT 9SM SCT140 OVC190 23/21 A2988 RMK SLP120 DENSITY
                 ALT 1300FT =
2018-08-18 00:50 METAR CYTZ 180050Z AUTO 32005KT 300V010 9SM FEW110 BKN140 OVC190 23/21 A2988 RMK
                 SLP118 DENSITY ALT 1300FT =
2018-08-18 00:40 METAR CYTZ 180040Z AUTO 31006KT 280V360 9SM -RA FEW110 OVC140 23/21 A2987 RMK
                 SLP117 DENSITY ALT 1300FT =
2018-08-18 00:17 METAR CYTZ 180017Z AUTO 32004KT 9SM BKN090 OVC110 23/22 A2987 RMK SLP116 DENSITY
                 ALT 1300FT =
2018-08-18 00:06 METAR CYTZ 180006Z AUTO 31005KT 300V020 9SM -RA FEW010 BKN090 OVC110 24/21 A2987
                 RMK LTNG DIST SE SLP115 DENSITY ALT 1300FT =
2018-08-18 00:00 METAR CYTZ 180000Z AUTO 35006KT 330V030 9SM FEW010 BKN090 OVC110 24/22 A2987 RMK
                 LTNG DIST SE SLP114 DENSITY ALT 1300FT =
2018-08-17 23:38 METAR CYTZ 172338Z AUTO 35006KT 310V010 9SM SCT013 SCT055 BKN081 OVC120 24/22
                 A2987 RMK LTNG DIST SE S SLP114 DENSITY ALT 1300FT =
2018-08-17 23:19 METAR CYTZ 172319Z AUTO 32007KT 9SM -RA FEW011 BKN040 BKN080 OVC120 24/22 A2986
                 RMK LTNG DIST E SE SLP113 DENSITY ALT 1300FT =
2018-08-17 23:15 METAR CYTZ 172315Z AUTO 32007KT 9SM -RA VCTS FEW011 BKN040 BKN075 OVC120 24/22
                 A2986 RMK LTNG DIST E SE SLP113 DENSITY ALT 1300FT
2018-08-17 23:02 METAR CYTZ 172302Z AUTO 31005KT 270V330 6SM TSRA BR FEW011 OVC045 24/23 A2987
                 RMK LTNG DIST E SE SLP114 DENSITY ALT 1400FT =
2018-08-17 23:00 METAR CYTZ 172300Z AUTO 31006KT 270V330 6SM +TSRA BR BKN045 OVC060 24/23 A2987
                 RMK LTNG DIST N E SE SLP114 DENSITY ALT 1400FT =
2018-08-17 22:49 METAR CYTZ 172249Z AUTO 30006KT 7SM +TSRA FEW017 BKN045 OVC060 24/22 A2987 RMK
                 LTNG DIST ALQDS SLP115 DENSITY ALT 1400FT =
2018-08-17 22:36 METAR CYTZ 172236Z AUTO 31007KT 9SM -TSRA FEW017 BKN050 BKN065 BKN079 25/22
                 A2986 RMK LTNG DIST ALQDS PRESRR SLP111 DENSITY ALT 1500FT =
2018-08-17 22:21 METAR CYTZ 172221Z AUTO 09004KT 360V130 9SM TS FEW017 SCT065 SCT079 SCT100 24/23
                 A2984 RMK LTNG DIST ALQDS SLP106 DENSITY ALT 1400FT =
2018-08-17 22:07 METAR CYTZ 172207Z AUTO VRB05KT 9SM VCTS FEW150 25/23 A2984 RMK LTNG DIST ALQDS
                 SLP104 DENSITY ALT 1500FT =
2018-08-17 22:00 METAR CYTZ 172200Z AUTO 21003KT 100V230 9SM FEW150 24/23 A2983 RMK LTNG DIST
                 ALQDS SLP103 DENSITY ALT 1400FT =
2018-08-17 21:54 METAR CYTZ 172154Z AUTO 00000KT 9SM FEW150 24/23 A2983 RMK LTNG DIST ALQDS
                 SLP101 DENSITY ALT 1500FT =
2018-08-17 21:23 METAR CYTZ 172123Z AUTO 34005KT 9SM TS FEW017 SCT070 BKN096 24/23 A2984 RMK LTNG
                 DIST ALQDS SLP104 DENSITY ALT 1400FT =
2018-08-17 21:15 METAR CYTZ 172115Z AUTO 01006KT 360V080 9SM -TSRA SCT017 BKN070 BKN079 BKN097
                 23/23 A2983 RMK LTNG DIST ALQDS PRESFR SLP102 DENSITY ALT 1300FT
2018-08-17 21:12 METAR CYTZ 172112Z AUTO 02007KT 360V080 6SM -TSRA BR FEW007 BKN017 BKN070 OVC096
                 23/22 A2983 RMK LTNG DIST ALQDS PRESFR SLP101 DENSITY ALT 1300FT =
2018-08-17 21:11 METAR CYTZ 172111Z AUTO 03006KT 360V080 4SM TSRA BR FEW007 BKN017 OVC070 23/22
                 A2983 RMK LTNG DIST ALQDS PRESFR SLP102 DENSITY ALT 1300FT =
2018-08-17 21:08 METAR CYTZ 172108Z AUTO 07006KT 1 1/2SM TSRA BR FEW007 BKN017 OVC070 23/22 A2983
                 RMK VIS VRB 3/8-3 LTNG DIST ALQDS PRESFR SLP102 DENSITY ALT 1300FT =
2018-08-17 21:07 METAR CYTZ 172107Z AUTO 07007KT 040V110 1SM R08/2800VP6000FT/ +TSRA BR FEW007
                 BKN017 BKN028 OVC070 23/22 A2983 RMK VIS VRB 3/8-3 LTNG DIST ALQDS PRESFR SLP102
                 DENSITY ALT 1200FT =
2018-08-17 21:00 METAR CYTZ 172100Z AUTO VRB04KT 5/8SM +TSRA BR BKN013 OVC030 23/22 A2984 RMK
                 LTNG DIST ALQDS SLP106 DENSITY ALT 1200FT =
2018-08-17 20:57 METAR CYTZ 172057Z AUTO VRB02KT 3/4SM R26/2200FT/N +TSRA BR BKN013 OVC030 23/21
                 A2985 RMK LTNG DIST ALQDS SLP109 DENSITY ALT 1200FT =
2018-08-17 20:50 METAR CYTZ 172050Z AUTO 29012G19KT 1 1/4SM R08/2800V4500FT/ +TSRA BR FEW004
                 BKN015 OVC030 23/22 A2985 RMK VIS VRB 3/4-3 LTNG DIST ALQDS PRESRR SLP110
                 DENSITY ALT 1300FT =
2018-08-17 20:49 METAR CYTZ 172049Z AUTO 30010G19KT 1 1/4SM R08/2800V4500FT/ +TSRA BR FEW004
                 SCT015 OVC030 24/22 A2985 RMK LTNG DIST ALQDS PRESRR SLP109 DENSITY ALT 1300FT =
2018-08-17 20:43 METAR CYTZ 172043Z AUTO 32014G19KT 310V040 2 1/2SM R08/2200FT/N +TSRA FEW009
                 BKN028 OVC032 25/22 A2984 RMK LTNG DIST ALQDS PRESRR SLP107 DENSITY ALT 1400FT =
2018-08-17 20:42 METAR CYTZ 172042Z AUTO 32014G19KT 310V040 4SM R08/2200FT/N +TSRA FEW011 BKN028
                 OVC032 25/22 A2984 RMK LTNG DIST ALQDS PRESRR SLP107 DENSITY ALT 1500FT =
2018-08-17 20:41 METAR CYTZ 172041Z AUTO 33012G17KT 310V050 5SM TSRA BR FEW011 BKN028 OVC032
                 25/22 A2984 RMK LTNG DIST S SW NW PRESRR SLP106 DENSITY ALT 1500FT =
2018-08-17 20:39 METAR CYTZ 172039Z AUTO 35014KT 340V060 9SM TSRA BKN028 BKN032 OVC065 26/22
                 A2984 RMK LTNG DIST ALQDS PRESRR SLP104 DENSITY ALT 1600FT =
2018-08-17 20:25 METAR CYTZ 172025Z AUTO 06010KT 9SM TS BKN026 BKN032 OVC055 26/22 A2982 RMK LTNG
                 DIST NE W SLP100 DENSITY ALT 1600FT =
2018-08-17 20:00 METAR CYTZ 172000Z AUTO 22003KT 170V240 9SM VCTS BKN055 OVC066 27/23 A2983 RMK
                 LTNG DIST N NE SLP102 DENSITY ALT 1800FT =
2018-08-17 19:27 METAR CYTZ 171927Z AUTO 20007KT 9SM VCTS BKN065 27/24 A2983 RMK LTNG DIST N NE
                 SLP101 DENSITY ALT 1700FT =
2018-08-17 19:24 METAR CYTZ 171924Z AUTO 19008KT 9SM BKN065 27/24 A2983 RMK LTNG DIST N NE SLP101
                 DENSITY ALT 1700FT =
2018-08-17 19:07 METAR CYTZ 171907Z AUTO 18008KT 9SM VCTS FEW034 SCT065 BKN076 BKN100 27/24 A2983
                 RMK LTNG DIST N NE SLP101 DENSITY ALT 1700FT =
2018-08-17 19:00 METAR CYTZ 171900Z AUTO 18007KT 9SM FEW034 BKN070 BKN100 27/24 A2984 RMK LTNG
                 DIST N NE SLP103 DENSITY ALT 1700FT =
2018-08-17 18:07 METAR CYTZ 171807Z AUTO 17006KT 080V250 9SM FEW011 SCT023 SCT034 BKN055 26/24
                 A2984 RMK LTNG DIST N SLP107 DENSITY ALT 1700FT =
2018-08-17 18:06 METAR CYTZ 171806Z AUTO 17006KT 080V250 9SM FEW011 BKN023 BKN034 OVC070 26/24
                 A2984 RMK LTNG DIST N SLP107 DENSITY ALT 1700FT =
2018-08-17 18:01 METAR CYTZ 171801Z AUTO VRB04KT 9SM FEW011 BKN025 BKN034 OVC070 26/24 A2985 RMK
                 LTNG DIST N SLP108 DENSITY ALT 1700FT =
2018-08-17 18:00 METAR CYTZ 171800Z AUTO VRB02KT 9SM -RA FEW011 BKN025 BKN034 OVC070 26/24 A2985
                 RMK LTNG DIST N SLP108 DENSITY ALT 1600FT =
2018-08-17 17:46 METAR CYTZ 171746Z AUTO VRB02KT 9SM -RA SCT025 BKN031 BKN041 OVC050 25/23 A2985
                 RMK SLP108 DENSITY ALT 1500FT =
2018-08-17 17:00 METAR CYTZ 171700Z AUTO 17007KT 9SM SCT030 BKN036 BKN070 26/24 A2985 RMK SLP108
                 DENSITY ALT 1600FT =
2018-08-17 16:00 METAR CYTZ 171600Z AUTO 18006KT 9SM SCT026 BKN035 BKN043 BKN065 25/23 A2987 RMK
                 SLP114 DENSITY ALT 1500FT =
2018-08-17 15:07 METAR CYTZ 171507Z AUTO 21011KT 9SM SCT013 SCT020 BKN030 25/23 A2989 RMK SLP121
                 DENSITY ALT 1500FT =
2018-08-17 15:00 METAR CYTZ 171500Z AUTO 20010KT 9SM SCT010 BKN015 BKN022 OVC030 25/23 A2989 RMK
                 SLP121 DENSITY ALT 1400FT =
2018-08-17 14:05 METAR CYTZ 171405Z AUTO 20012KT 9SM SCT010 SCT014 BKN019 OVC055 25/23 A2990 RMK
                 SLP125 DENSITY ALT 1400FT =
2018-08-17 14:00 METAR CYTZ 171400Z AUTO 20010KT 9SM SCT010 BKN034 OVC055 25/23 A2990 RMK SLP125
                 DENSITY ALT 1500FT =

Support USWX by starting your Amazon purchase here.